createdAt,value
2022-11-15T00:01:18.939Z,23.13
2022-11-15T00:03:47.231Z,20.17
2022-11-15T00:06:15.674Z,19.47
2022-11-15T00:08:43.842Z,18.97
2022-11-15T00:11:13.672Z,17.53
2022-11-15T00:13:42.471Z,18.60
2022-11-15T00:16:11.678Z,18.23
2022-11-15T00:18:45.161Z,19.33
2022-11-15T00:21:16.943Z,17.23
2022-11-15T00:23:45.177Z,17.50
2022-11-15T00:26:14.666Z,16.90
2022-11-15T00:28:43.552Z,17.03
2022-11-15T00:31:14.217Z,17.00
2022-11-15T00:33:45.522Z,16.37
2022-11-15T00:36:13.962Z,15.70
2022-11-15T00:38:42.555Z,16.20
2022-11-15T00:41:10.999Z,15.60
2022-11-15T00:43:41.157Z,15.77
2022-11-15T00:46:10.808Z,15.83
2022-11-15T00:48:39.222Z,15.17
2022-11-15T00:51:08.855Z,17.40
2022-11-15T00:53:37.293Z,16.83
2022-11-15T00:56:05.592Z,17.67
2022-11-15T00:58:33.782Z,18.57
2022-11-15T01:01:09.301Z,18.17
2022-11-15T01:03:37.783Z,17.17
2022-11-15T01:06:06.312Z,17.13
2022-11-15T01:08:36.083Z,15.90
2022-11-15T01:11:04.944Z,15.60
2022-11-15T01:13:34.136Z,16.83
2022-11-15T01:16:07.487Z,16.83
2022-11-15T01:18:35.571Z,17.10
2022-11-15T01:21:08.260Z,17.57
2022-11-15T01:23:37.821Z,15.07
2022-11-15T01:29:53.964Z,13.90
2022-11-15T01:32:22.429Z,15.40
2022-11-15T01:34:50.778Z,15.07
2022-11-15T01:37:19.078Z,17.50
2022-11-15T01:39:49.298Z,18.07
2022-11-15T01:42:17.868Z,16.80
2022-11-15T01:44:49.799Z,17.40
2022-11-15T01:47:20.152Z,15.20
2022-11-15T01:49:54.280Z,16.87
2022-11-15T01:52:24.136Z,17.83
2022-11-15T01:54:57.807Z,23.37
2022-11-15T01:57:38.411Z,23.30
2022-11-15T02:00:08.128Z,20.10
2022-11-15T02:02:36.949Z,16.70
2022-11-15T02:05:05.805Z,18.53
2022-11-15T02:07:35.248Z,14.73
2022-11-15T02:10:09.473Z,16.23
2022-11-15T02:12:37.840Z,13.13
2022-11-15T02:15:07.771Z,14.13
2022-11-15T02:18:00.808Z,12.33
2022-11-15T02:20:49.192Z,14.03
2022-11-15T02:24:02.971Z,11.70
2022-11-15T02:27:03.762Z,12.30
2022-11-15T02:29:42.010Z,11.87
2022-11-15T02:32:15.004Z,11.40
2022-11-15T02:34:51.216Z,11.50
2022-11-15T02:37:26.152Z,13.00
2022-11-15T02:40:01.982Z,12.53
2022-11-15T02:42:51.150Z,11.90
2022-11-15T02:45:27.849Z,15.53
2022-11-15T02:47:59.540Z,12.60
2022-11-15T02:50:29.859Z,11.87
2022-11-15T02:52:57.985Z,13.13
2022-11-15T02:55:31.620Z,14.33
2022-11-15T02:58:14.419Z,13.83
2022-11-15T03:00:50.099Z,11.50
2022-11-15T03:03:33.632Z,12.30
2022-11-15T03:06:08.323Z,13.60
2022-11-15T03:08:42.479Z,13.33
2022-11-15T03:11:12.556Z,11.57
2022-11-15T03:13:45.505Z,12.23
2022-11-15T03:16:18.259Z,11.33
2022-11-15T03:18:50.274Z,12.30
2022-11-15T03:21:19.556Z,12.67
2022-11-15T03:23:49.519Z,13.00
2022-11-15T03:26:19.539Z,12.27
2022-11-15T03:28:52.518Z,11.77
2022-11-15T03:31:39.989Z,12.10
2022-11-15T03:34:13.643Z,11.87
2022-11-15T03:36:41.947Z,11.10
2022-11-15T03:39:10.869Z,11.70
2022-11-15T03:41:42.899Z,11.20
2022-11-15T03:44:16.659Z,11.83
2022-11-15T03:46:49.582Z,11.40
2022-11-15T03:49:22.739Z,12.83
2022-11-15T03:51:51.159Z,12.70
2022-11-15T03:54:19.352Z,11.03
2022-11-15T03:56:48.350Z,11.33
2022-11-15T03:59:16.497Z,11.70
2022-11-15T04:01:44.590Z,11.63
2022-11-15T04:04:12.731Z,11.63
2022-11-15T04:06:42.268Z,11.37
2022-11-15T04:09:10.419Z,11.87
2022-11-15T04:11:38.542Z,11.30
2022-11-15T04:14:06.628Z,12.23
2022-11-15T04:16:37.436Z,11.13
2022-11-15T04:19:22.880Z,12.17
2022-11-15T04:22:21.601Z,12.03
2022-11-15T04:24:49.730Z,11.37
2022-11-15T04:27:18.710Z,11.27
2022-11-15T04:29:46.921Z,11.13
2022-11-15T04:32:15.213Z,12.20
2022-11-15T04:34:43.887Z,11.27
2022-11-15T04:37:17.604Z,11.73
2022-11-15T04:39:45.872Z,11.70
2022-11-15T04:42:13.981Z,12.73
2022-11-15T04:44:42.149Z,11.80
2022-11-15T04:47:10.281Z,12.07
2022-11-15T04:49:38.560Z,12.07
2022-11-15T04:52:06.800Z,12.30
2022-11-15T04:54:36.377Z,12.87
2022-11-15T04:57:04.553Z,13.63
2022-11-15T04:59:32.640Z,13.77
2022-11-15T05:02:00.773Z,14.67
2022-11-15T05:04:28.129Z,14.53
2022-11-15T05:06:56.290Z,13.97
2022-11-15T05:09:24.429Z,14.33
2022-11-15T05:11:53.976Z,13.30
2022-11-15T05:14:22.888Z,13.77
2022-11-15T05:16:51.090Z,13.00
2022-11-15T05:19:19.309Z,13.37
2022-11-15T05:21:47.379Z,12.83
2022-11-15T05:24:15.659Z,11.53
2022-11-15T05:26:43.797Z,13.40
2022-11-15T05:29:13.421Z,12.90
2022-11-15T05:31:42.747Z,13.77
2022-11-15T05:34:10.919Z,13.03
2022-11-15T05:36:40.699Z,14.83
2022-11-15T05:39:10.223Z,13.83
2022-11-15T05:41:40.090Z,12.43
2022-11-15T05:44:10.348Z,13.33
2022-11-15T05:46:40.829Z,12.07
2022-11-15T05:49:11.160Z,12.77
2022-11-15T05:51:39.827Z,12.67
2022-11-15T05:54:08.038Z,13.30
2022-11-15T05:56:36.246Z,12.73
2022-11-15T05:59:04.848Z,14.57
2022-11-15T06:01:33.148Z,16.67
2022-11-15T06:04:02.618Z,13.53
2022-11-15T06:06:30.849Z,12.13
2022-11-15T06:08:58.991Z,12.43
2022-11-15T06:11:27.160Z,12.60
2022-11-15T06:13:55.849Z,12.33
2022-11-15T06:16:23.978Z,12.57
2022-11-15T06:18:52.137Z,15.23
2022-11-15T06:21:21.750Z,12.37
2022-11-15T06:23:49.958Z,11.87
2022-11-15T06:26:18.063Z,12.50
2022-11-15T06:28:46.133Z,12.10
2022-11-15T06:31:14.562Z,11.13
2022-11-15T06:33:42.979Z,13.77
2022-11-15T06:36:17.433Z,17.77
2022-11-15T06:38:47.579Z,18.97
2022-11-15T06:41:17.959Z,17.87
2022-11-15T06:43:46.070Z,16.87
2022-11-15T06:46:14.280Z,20.00
2022-11-15T06:48:42.391Z,15.10
2022-11-15T06:51:10.488Z,11.77
2022-11-15T06:53:38.812Z,14.63
2022-11-15T06:56:10.211Z,17.20
2022-11-15T06:58:38.840Z,15.03
2022-11-15T07:01:08.787Z,13.50
2022-11-15T07:03:37.219Z,14.83
2022-11-15T07:06:07.364Z,18.87
2022-11-15T07:08:36.428Z,20.17
2022-11-15T07:11:06.269Z,20.67
2022-11-15T07:13:37.299Z,19.93
2022-11-15T07:16:06.284Z,15.43
2022-11-15T07:18:36.259Z,16.93
2022-11-15T07:21:05.051Z,17.03
2022-11-15T07:23:34.032Z,15.67
2022-11-15T07:26:02.850Z,14.47
2022-11-15T07:28:31.073Z,15.27
2022-11-15T07:31:00.871Z,16.63
2022-11-15T07:33:29.244Z,16.07
2022-11-15T07:36:02.671Z,18.50
2022-11-15T07:38:31.318Z,14.20
2022-11-15T07:40:59.878Z,15.17
2022-11-15T07:43:29.110Z,14.53
2022-11-15T07:45:59.332Z,13.13
2022-11-15T07:48:42.155Z,14.13
2022-11-15T07:51:14.697Z,13.57
2022-11-15T07:53:43.209Z,16.07
2022-11-15T07:56:12.182Z,13.43
2022-11-15T07:58:40.344Z,12.57
2022-11-15T08:01:10.473Z,12.53
2022-11-15T08:03:40.152Z,13.03
2022-11-15T08:06:08.370Z,12.70
2022-11-15T08:08:36.501Z,12.37
2022-11-15T08:11:05.166Z,12.33
2022-11-15T08:13:33.504Z,12.50
2022-11-15T08:16:01.991Z,13.57
2022-11-15T08:18:30.070Z,11.57
2022-11-15T08:21:02.695Z,11.70
2022-11-15T08:23:31.440Z,12.20
2022-11-15T08:26:04.511Z,14.03
2022-11-15T08:28:32.860Z,12.83
2022-11-15T08:31:00.973Z,12.17
2022-11-15T08:33:30.269Z,11.00
2022-11-15T08:35:59.959Z,11.67
2022-11-15T08:38:31.932Z,12.10
2022-11-15T08:41:04.391Z,12.07
2022-11-15T08:43:32.772Z,12.63
2022-11-15T08:46:01.451Z,15.57
2022-11-15T08:48:29.719Z,12.97
2022-11-15T08:50:58.536Z,12.10
2022-11-15T08:53:26.640Z,12.70
2022-11-15T08:55:56.251Z,13.03
2022-11-15T08:58:24.360Z,14.80
2022-11-15T09:00:52.491Z,13.90
2022-11-15T09:03:20.564Z,14.00
2022-11-15T09:05:48.722Z,13.97
2022-11-15T09:08:40.812Z,13.20
2022-11-15T09:11:07.341Z,12.57
2022-11-15T09:13:35.705Z,12.10
2022-11-15T09:16:03.955Z,12.20
2022-11-15T09:18:32.723Z,12.00
2022-11-15T09:21:03.290Z,11.53
2022-11-15T09:23:31.459Z,11.37
2022-11-15T09:26:03.977Z,11.57
2022-11-15T09:28:35.304Z,10.20
2022-11-15T09:31:05.693Z,10.93
2022-11-15T09:33:34.824Z,11.47
2022-11-15T09:36:04.102Z,12.10
2022-11-15T09:38:32.590Z,11.27
2022-11-15T09:41:16.781Z,14.07
2022-11-15T09:43:53.276Z,10.47
2022-11-15T09:46:28.391Z,11.10
2022-11-15T09:49:03.556Z,10.83
2022-11-15T09:51:33.449Z,9.23
2022-11-15T09:56:54.364Z,11.60
2022-11-15T09:59:39.551Z,10.93
2022-11-15T10:02:15.880Z,10.03
2022-11-15T10:04:44.292Z,10.20
2022-11-15T10:07:17.457Z,10.23
2022-11-15T10:09:48.710Z,10.13
2022-11-15T10:12:18.612Z,9.00
2022-11-15T10:14:54.356Z,10.30
2022-11-15T10:17:40.391Z,11.87
2022-11-15T10:20:15.211Z,12.63
2022-11-15T10:22:48.269Z,11.67
2022-11-15T10:25:21.229Z,11.20
2022-11-15T10:27:55.273Z,10.20
2022-11-15T10:30:26.191Z,9.23
2022-11-15T10:32:54.316Z,9.77
2022-11-15T10:35:28.174Z,10.17
2022-11-15T10:38:07.331Z,9.50
2022-11-15T10:40:35.788Z,10.03
2022-11-15T10:43:15.621Z,10.57
2022-11-15T10:45:45.717Z,9.97
2022-11-15T10:48:25.679Z,11.93
2022-11-15T10:50:55.411Z,10.40
2022-11-15T10:53:26.948Z,9.70
2022-11-15T10:55:57.049Z,10.73
2022-11-15T10:58:34.207Z,9.47
2022-11-15T11:01:14.425Z,10.47
2022-11-15T11:03:43.387Z,9.70
2022-11-15T11:06:14.449Z,10.10
2022-11-15T11:08:42.820Z,10.37
2022-11-15T11:11:11.410Z,11.23
2022-11-15T11:13:40.422Z,10.40
2022-11-15T11:16:47.271Z,10.80
2022-11-15T11:19:33.300Z,10.20
2022-11-15T11:22:11.872Z,9.83
2022-11-15T11:24:46.556Z,9.60
2022-11-15T11:27:31.621Z,9.53
2022-11-15T11:30:06.289Z,9.67
2022-11-15T11:32:55.016Z,10.20
2022-11-15T11:35:27.015Z,10.03
2022-11-15T11:37:58.921Z,9.60
2022-11-15T11:40:32.251Z,9.10
2022-11-15T11:43:06.940Z,10.83
2022-11-15T11:45:58.854Z,9.10
2022-11-15T11:48:42.630Z,8.17
2022-11-15T11:51:16.051Z,8.73
2022-11-15T11:53:50.042Z,8.37
2022-11-15T11:56:24.729Z,9.40
2022-11-15T11:58:55.760Z,9.37
2022-11-15T12:01:26.975Z,8.67
2022-11-15T12:03:59.630Z,9.77
2022-11-15T12:06:33.879Z,9.27
2022-11-15T12:09:06.320Z,10.03
2022-11-15T12:11:39.779Z,10.67
2022-11-15T12:14:15.129Z,9.30
2022-11-15T12:16:44.800Z,10.57
2022-11-15T12:19:14.483Z,8.60
2022-11-15T12:21:46.311Z,8.87
2022-11-15T12:24:18.650Z,9.60
2022-11-15T12:26:51.721Z,9.63
2022-11-15T12:29:24.200Z,10.03
2022-11-15T12:31:56.790Z,9.93
2022-11-15T12:34:50.530Z,10.10
2022-11-15T12:37:49.451Z,9.20
2022-11-15T12:40:39.093Z,9.40
2022-11-15T12:43:42.741Z,9.60
2022-11-15T12:46:22.231Z,9.10
2022-11-15T12:48:56.610Z,8.70
2022-11-15T12:52:07.930Z,8.57
2022-11-15T12:54:56.990Z,12.00
2022-11-15T12:57:40.381Z,10.97
2022-11-15T13:00:48.093Z,17.90
2022-11-15T13:03:22.002Z,7.83
2022-11-15T13:06:10.761Z,7.90
2022-11-15T13:08:55.290Z,8.63
2022-11-15T13:11:52.530Z,8.40
2022-11-15T13:14:43.414Z,7.07
2022-11-15T13:17:35.150Z,7.07
2022-11-15T13:20:28.642Z,7.53
2022-11-15T13:23:04.572Z,7.60
2022-11-15T13:26:08.353Z,7.57
2022-11-15T13:28:39.726Z,7.97
2022-11-15T13:31:24.660Z,8.57
2022-11-15T13:33:53.330Z,8.50
2022-11-15T13:36:24.257Z,8.93
2022-11-15T13:39:00.970Z,8.73
2022-11-15T13:41:32.263Z,10.10
2022-11-15T13:44:01.461Z,9.23
2022-11-15T13:46:32.062Z,8.77
2022-11-15T13:49:02.021Z,8.70
2022-11-15T13:51:36.119Z,9.10
2022-11-15T13:54:06.488Z,9.07
2022-11-15T13:56:36.500Z,9.50
2022-11-15T13:59:11.357Z,8.40
2022-11-15T14:01:39.764Z,9.30
2022-11-15T14:04:08.171Z,9.93
2022-11-15T14:06:47.379Z,10.07
2022-11-15T14:09:34.434Z,10.00
2022-11-15T14:12:05.369Z,9.50
2022-11-15T14:14:33.429Z,9.70
2022-11-15T14:17:03.058Z,9.53
2022-11-15T14:19:41.983Z,9.47
2022-11-15T14:22:11.601Z,9.77
2022-11-15T14:24:40.240Z,11.30
2022-11-15T14:27:24.720Z,10.83
2022-11-15T14:29:53.069Z,11.80
2022-11-15T14:32:22.913Z,10.03
2022-11-15T14:34:52.731Z,10.67
2022-11-15T14:37:24.439Z,10.53
2022-11-15T14:39:53.270Z,10.77
2022-11-15T14:42:24.159Z,10.30
2022-11-15T14:44:52.811Z,10.40
2022-11-15T14:47:21.189Z,10.30
2022-11-15T14:49:49.894Z,10.47
2022-11-15T14:52:32.261Z,11.07
2022-11-15T14:55:02.459Z,11.00
2022-11-15T14:57:32.230Z,10.73
2022-11-15T15:00:00.727Z,9.83
2022-11-15T15:02:29.560Z,10.93
2022-11-15T15:05:02.174Z,11.53
2022-11-15T15:07:30.879Z,10.10
2022-11-15T15:10:17.766Z,10.73
2022-11-15T15:12:49.150Z,10.10
2022-11-15T15:15:18.929Z,11.03
2022-11-15T15:17:47.192Z,10.63
2022-11-15T15:20:16.082Z,12.10
2022-11-15T15:22:44.249Z,12.80
2022-11-15T15:25:27.921Z,15.33
2022-11-15T15:27:57.971Z,14.30
2022-11-15T15:30:26.950Z,13.93
2022-11-15T15:32:55.301Z,13.63
2022-11-15T15:35:24.039Z,13.83
2022-11-15T15:37:52.580Z,14.27
2022-11-15T15:40:22.319Z,14.30
2022-11-15T15:42:51.013Z,13.43
2022-11-15T15:45:21.164Z,12.63
2022-11-15T15:47:50.681Z,10.90
2022-11-15T15:50:24.401Z,11.23
2022-11-15T15:52:52.712Z,11.33
2022-11-15T15:55:20.998Z,11.93
2022-11-15T15:57:49.396Z,15.47
2022-11-15T16:00:18.329Z,17.40
2022-11-15T16:02:48.124Z,18.07
2022-11-15T16:05:16.460Z,17.93
2022-11-15T16:07:45.948Z,17.00
2022-11-15T16:10:21.303Z,16.23
2022-11-15T16:12:50.853Z,16.73
2022-11-15T16:15:19.517Z,14.30
2022-11-15T16:17:51.104Z,13.00
2022-11-15T16:20:37.550Z,13.87
2022-11-15T16:23:09.415Z,14.23
2022-11-15T16:25:42.420Z,14.10
2022-11-15T16:28:19.230Z,14.03
2022-11-15T16:30:50.037Z,14.27
2022-11-15T16:33:23.334Z,14.60
2022-11-15T16:35:51.667Z,13.20
2022-11-15T16:38:20.033Z,12.90
2022-11-15T16:40:48.508Z,13.40
2022-11-15T16:43:17.472Z,12.47
2022-11-15T16:45:46.020Z,18.03
2022-11-15T16:48:25.307Z,13.37
2022-11-15T16:50:56.734Z,10.73
2022-11-15T16:53:25.250Z,11.90
2022-11-15T16:55:53.701Z,10.50
2022-11-15T16:58:22.454Z,11.17
2022-11-15T17:00:52.784Z,11.03
2022-11-15T17:03:21.020Z,12.23
2022-11-15T17:05:50.730Z,12.53
2022-11-15T17:08:20.929Z,12.90
2022-11-15T17:10:49.241Z,11.73
2022-11-15T17:13:17.451Z,10.00
2022-11-15T17:15:45.624Z,10.10
2022-11-15T17:18:15.647Z,9.67
2022-11-15T17:20:45.029Z,10.27
2022-11-15T17:23:16.104Z,12.60
2022-11-15T17:25:44.378Z,10.63
2022-11-15T17:28:12.551Z,11.27
2022-11-15T17:30:43.418Z,11.50
2022-11-15T17:33:11.600Z,11.10
2022-11-15T17:35:39.798Z,11.97
2022-11-15T17:38:07.971Z,15.73
2022-11-15T17:40:37.517Z,18.10
2022-11-15T17:43:06.915Z,14.20
2022-11-15T17:45:35.349Z,12.30
2022-11-15T17:48:03.862Z,12.97
2022-11-15T17:50:32.211Z,19.27
2022-11-15T17:53:00.586Z,18.43
2022-11-15T17:55:29.027Z,14.27
2022-11-15T17:57:58.575Z,15.17
2022-11-15T18:00:26.660Z,14.70
2022-11-15T18:02:54.873Z,14.30
2022-11-15T18:05:23.069Z,13.97
2022-11-15T18:07:52.032Z,13.83
2022-11-15T18:10:20.148Z,14.77
2022-11-15T18:12:48.319Z,20.80
2022-11-15T18:15:19.228Z,18.57
2022-11-15T18:17:47.423Z,16.30
2022-11-15T18:20:15.632Z,17.43
2022-11-15T18:22:43.879Z,16.13
2022-11-15T18:25:15.989Z,15.77
2022-11-15T18:27:44.310Z,20.27
2022-11-15T18:30:13.298Z,18.67
2022-11-15T18:32:43.372Z,16.77
2022-11-15T18:35:11.494Z,15.77
2022-11-15T18:37:39.664Z,15.93
2022-11-15T18:40:09.272Z,18.30
2022-11-15T18:42:38.429Z,17.30
2022-11-15T18:45:07.615Z,16.07
2022-11-15T18:47:35.769Z,16.00
2022-11-15T18:50:05.592Z,16.03
2022-11-15T18:52:33.814Z,15.13
2022-11-15T18:55:02.367Z,15.10
2022-11-15T18:57:30.499Z,14.20
2022-11-15T18:59:58.653Z,14.13
2022-11-15T19:02:28.038Z,14.57
2022-11-15T19:04:56.198Z,14.67
2022-11-15T19:07:25.699Z,15.27
2022-11-15T19:09:53.868Z,13.77
2022-11-15T19:12:21.949Z,15.47
2022-11-15T19:14:50.075Z,16.60
2022-11-15T19:17:18.192Z,16.47
2022-11-15T19:19:46.887Z,16.60
2022-11-15T19:22:14.962Z,17.47
2022-11-15T19:24:44.725Z,18.33
2022-11-15T19:27:12.827Z,15.90
2022-11-15T19:29:41.746Z,16.10
2022-11-15T19:32:09.889Z,15.23
2022-11-15T19:34:41.794Z,18.33
2022-11-15T19:37:09.935Z,19.27
2022-11-15T19:39:41.029Z,19.63
2022-11-15T19:42:10.835Z,18.87
2022-11-15T19:44:38.975Z,19.70
2022-11-15T19:47:09.463Z,20.07
2022-11-15T19:49:37.746Z,18.93
2022-11-15T19:52:06.276Z,22.70
2022-11-15T19:54:34.426Z,21.60
2022-11-15T19:57:02.530Z,17.33
2022-11-15T19:59:32.084Z,17.87
2022-11-15T20:02:00.267Z,17.07
2022-11-15T20:04:28.412Z,18.47
2022-11-15T20:06:56.592Z,18.33
2022-11-15T20:09:26.099Z,17.37
2022-11-15T20:11:54.148Z,19.47
2022-11-15T20:14:24.020Z,17.77
2022-11-15T20:16:54.568Z,16.67
2022-11-15T20:19:22.790Z,16.80
2022-11-15T20:21:50.940Z,15.97
2022-11-15T20:24:19.055Z,17.63
2022-11-15T20:26:47.427Z,15.50
2022-11-15T20:29:15.515Z,16.60
2022-11-15T20:31:44.808Z,16.50
2022-11-15T20:34:14.312Z,17.83
2022-11-15T20:36:42.532Z,16.73
2022-11-15T20:39:10.784Z,17.27
2022-11-15T20:41:39.377Z,16.97
2022-11-15T20:44:07.883Z,18.07
2022-11-15T20:46:36.095Z,18.10
2022-11-15T20:49:04.256Z,18.53
2022-11-15T20:51:33.943Z,21.00
2022-11-15T20:54:02.255Z,20.23
2022-11-15T20:56:30.439Z,17.90
2022-11-15T20:58:58.704Z,16.03
2022-11-15T21:01:27.052Z,17.03
2022-11-15T21:03:56.343Z,15.20
2022-11-15T21:06:25.984Z,16.13
2022-11-15T21:09:13.658Z,15.57
2022-11-15T21:11:59.738Z,15.67
2022-11-15T21:14:27.816Z,16.57
2022-11-15T21:16:56.004Z,14.63
2022-11-15T21:19:30.105Z,15.73
2022-11-15T21:22:00.779Z,15.83
2022-11-15T21:24:30.594Z,18.37
2022-11-15T21:26:59.130Z,17.93
2022-11-15T21:29:28.936Z,18.20
2022-11-15T21:31:57.028Z,17.80
2022-11-15T21:34:25.208Z,18.30
2022-11-15T21:36:53.429Z,18.03
2022-11-15T21:39:21.574Z,17.27
2022-11-15T21:41:51.189Z,18.70
2022-11-15T21:44:19.286Z,17.23
2022-11-15T21:46:47.725Z,16.83
2022-11-15T21:49:15.997Z,14.57
2022-11-15T21:51:44.193Z,14.60
2022-11-15T21:54:12.477Z,16.80
2022-11-15T21:56:41.938Z,15.93
2022-11-15T21:59:11.980Z,16.87
2022-11-15T22:01:57.795Z,16.03
2022-11-15T22:04:25.939Z,16.83
2022-11-15T22:06:54.265Z,15.57
2022-11-15T22:09:22.557Z,16.50
2022-11-15T22:11:50.658Z,16.30
2022-11-15T22:14:20.201Z,15.93
2022-11-15T22:16:48.267Z,17.17
2022-11-15T22:19:16.627Z,18.17
2022-11-15T22:21:44.866Z,18.23
2022-11-15T22:24:13.076Z,18.03
2022-11-15T22:26:41.194Z,17.63
2022-11-15T22:29:09.515Z,15.83
2022-11-15T22:31:39.076Z,17.80
2022-11-15T22:34:07.318Z,16.27
2022-11-15T22:36:52.308Z,16.07
2022-11-15T22:39:23.906Z,16.87
2022-11-15T22:41:53.468Z,17.87
2022-11-15T22:44:22.215Z,16.63
2022-11-15T22:46:52.736Z,16.13
2022-11-15T22:49:20.808Z,15.07
2022-11-15T22:51:49.556Z,14.90
2022-11-15T22:54:17.738Z,14.67
2022-11-15T22:56:46.659Z,14.27
2022-11-15T22:59:14.803Z,14.50
2022-11-15T23:01:43.176Z,15.93
2022-11-15T23:04:12.686Z,14.83
2022-11-15T23:06:40.846Z,14.47
2022-11-15T23:09:10.053Z,15.23
2022-11-15T23:11:55.829Z,15.00
2022-11-15T23:14:23.945Z,15.17
2022-11-15T23:16:52.068Z,14.53
2022-11-15T23:19:21.624Z,14.53
2022-11-15T23:22:06.996Z,15.17
2022-11-15T23:24:35.285Z,16.43
2022-11-15T23:27:05.256Z,16.27
2022-11-15T23:29:53.519Z,14.83
2022-11-15T23:32:36.305Z,14.60
2022-11-15T23:35:06.665Z,14.33
2022-11-15T23:37:34.877Z,14.57
2022-11-15T23:40:03.016Z,14.80
2022-11-15T23:42:31.266Z,14.53
2022-11-15T23:44:59.416Z,14.70
2022-11-15T23:47:27.655Z,13.83
2022-11-15T23:49:55.775Z,14.03
2022-11-15T23:52:25.715Z,14.10
2022-11-15T23:54:54.345Z,14.00
2022-11-15T23:57:23.366Z,14.53
2022-11-15T23:59:52.054Z,14.27
